sensor_id;sensor_type;location;lat;lon;timestamp;pressure;altitude;pressure_sealevel;temperature;humidity
32747;BME280;19118;50.860;13.662;2023-04-05T00:04:19;97565.53;;;-0.27;96.03
32747;BME280;19118;50.860;13.662;2023-04-05T00:09:20;97563.31;;;-0.21;94.03
32747;BME280;19118;50.860;13.662;2023-04-05T00:14:20;97560.13;;;-0.13;94.05
32747;BME280;19118;50.860;13.662;2023-04-05T00:19:20;97553.97;;;-0.12;92.29
32747;BME280;19118;50.860;13.662;2023-04-05T00:24:22;97545.00;;;-0.08;91.45
32747;BME280;19118;50.860;13.662;2023-04-05T00:29:23;97551.03;;;-0.08;91.65
32747;BME280;19118;50.860;13.662;2023-04-05T00:34:23;97539.13;;;-0.10;92.22
32747;BME280;19118;50.860;13.662;2023-04-05T00:39:24;97541.59;;;-0.09;91.91
32747;BME280;19118;50.860;13.662;2023-04-05T00:44:24;97539.69;;;-0.07;90.01
32747;BME280;19118;50.860;13.662;2023-04-05T00:49:25;97531.91;;;-0.07;87.60
32747;BME280;19118;50.860;13.662;2023-04-05T00:54:27;97536.28;;;-0.07;87.13
32747;BME280;19118;50.860;13.662;2023-04-05T00:59:28;97531.53;;;-0.02;88.60
32747;BME280;19118;50.860;13.662;2023-04-05T01:04:29;97531.31;;;0.01;91.45
32747;BME280;19118;50.860;13.662;2023-04-05T01:14:47;97525.50;;;-0.03;90.44
32747;BME280;19118;50.860;13.662;2023-04-05T01:19:51;97527.53;;;-0.06;90.41
32747;BME280;19118;50.860;13.662;2023-04-05T01:25:06;97520.91;;;-0.10;91.60
32747;BME280;19118;50.860;13.662;2023-04-05T01:30:17;97515.47;;;-0.07;90.06
32747;BME280;19118;50.860;13.662;2023-04-05T01:35:29;97507.44;;;-0.15;91.15
32747;BME280;19118;50.860;13.662;2023-04-05T01:40:34;97502.00;;;-0.12;94.96
32747;BME280;19118;50.860;13.662;2023-04-05T01:45:35;97494.69;;;-0.07;96.12
32747;BME280;19118;50.860;13.662;2023-04-05T01:50:37;97489.72;;;-0.10;97.57
32747;BME280;19118;50.860;13.662;2023-04-05T01:55:38;97492.41;;;-0.12;98.80
32747;BME280;19118;50.860;13.662;2023-04-05T02:00:38;97495.50;;;-0.18;97.43
32747;BME280;19118;50.860;13.662;2023-04-05T02:05:38;97487.59;;;-0.16;97.59
32747;BME280;19118;50.860;13.662;2023-04-05T02:10:44;97493.03;;;-0.08;98.54
32747;BME280;19118;50.860;13.662;2023-04-05T02:15:48;97494.09;;;-0.11;99.04
32747;BME280;19118;50.860;13.662;2023-04-05T02:20:50;97489.72;;;-0.10;100.00
32747;BME280;19118;50.860;13.662;2023-04-05T02:25:50;97490.69;;;-0.22;97.49
32747;BME280;19118;50.860;13.662;2023-04-05T02:30:51;97486.31;;;-0.22;98.15
32747;BME280;19118;50.860;13.662;2023-04-05T02:35:52;97483.59;;;-0.20;100.00
32747;BME280;19118;50.860;13.662;2023-04-05T02:40:52;97485.25;;;-0.19;100.00
32747;BME280;19118;50.860;13.662;2023-04-05T02:45:53;97471.53;;;-0.21;100.00
32747;BME280;19118;50.860;13.662;2023-04-05T02:50:54;97476.75;;;-0.21;100.00
32747;BME280;19118;50.860;13.662;2023-04-05T02:55:55;97481.69;;;-0.18;100.00
32747;BME280;19118;50.860;13.662;2023-04-05T03:00:58;97472.47;;;-0.11;100.00
32747;BME280;19118;50.860;13.662;2023-04-05T03:06:05;97470.81;;;-0.12;100.00
32747;BME280;19118;50.860;13.662;2023-04-05T03:11:15;97470.81;;;-0.12;100.00
32747;BME280;19118;50.860;13.662;2023-04-05T03:16:20;97467.75;;;-0.17;100.00
32747;BME280;19118;50.860;13.662;2023-04-05T03:21:22;97470.22;;;-0.16;100.00
32747;BME280;19118;50.860;13.662;2023-04-05T03:26:31;97465.03;;;-0.16;100.00
32747;BME280;19118;50.860;13.662;2023-04-05T03:31:32;97462.31;;;-0.14;100.00
32747;BME280;19118;50.860;13.662;2023-04-05T03:36:37;97457.94;;;-0.14;100.00
32747;BME280;19118;50.860;13.662;2023-04-05T03:41:56;97457.81;;;-0.12;100.00
32747;BME280;19118;50.860;13.662;2023-04-05T03:46:56;97455.13;;;-0.11;100.00
32747;BME280;19118;50.860;13.662;2023-04-05T03:51:57;97464.69;;;-0.22;100.00
32747;BME280;19118;50.860;13.662;2023-04-05T03:56:57;97460.66;;;-0.26;100.00
32747;BME280;19118;50.860;13.662;2023-04-05T04:01:58;97461.84;;;-0.31;100.00
32747;BME280;19118;50.860;13.662;2023-04-05T04:07:00;97455.00;;;-0.32;100.00
32747;BME280;19118;50.860;13.662;2023-04-05T04:12:03;97461.84;;;-0.31;100.00
32747;BME280;19118;50.860;13.662;2023-04-05T04:17:03;97462.78;;;-0.20;100.00
32747;BME280;19118;50.860;13.662;2023-04-05T04:22:25;97465.16;;;-0.28;100.00
32747;BME280;19118;50.860;13.662;2023-04-05T04:28:07;97467.50;;;-0.37;100.00
32747;BME280;19118;50.860;13.662;2023-04-05T04:33:23;97468.00;;;-0.32;100.00
32747;BME280;19118;50.860;13.662;2023-04-05T04:38:41;97464.69;;;-0.34;100.00
32747;BME280;19118;50.860;13.662;2023-04-05T04:44:05;97459.94;;;-0.28;100.00
32747;BME280;19118;50.860;13.662;2023-04-05T04:49:15;97458.31;;;-0.30;100.00
32747;BME280;19118;50.860;13.662;2023-04-05T04:54:22;97456.88;;;-0.11;100.00
32747;BME280;19118;50.860;13.662;2023-04-05T04:59:23;97450.94;;;-0.02;100.00
32747;BME280;19118;50.860;13.662;2023-04-05T05:04:23;97463.22;;;0.07;100.00
32747;BME280;19118;50.860;13.662;2023-04-05T05:09:24;97466.28;;;0.23;100.00
32747;BME280;19118;50.860;13.662;2023-04-05T05:14:28;97473.25;;;0.23;100.00
32747;BME280;19118;50.860;13.662;2023-04-05T05:19:29;97472.06;;;0.27;100.00
32747;BME280;19118;50.860;13.662;2023-04-05T05:24:31;97465.06;;;0.39;98.67
32747;BME280;19118;50.860;13.662;2023-04-05T05:29:32;97473.34;;;0.65;96.42
32747;BME280;19118;50.860;13.662;2023-04-05T05:34:32;97476.31;;;0.71;95.45
32747;BME280;19118;50.860;13.662;2023-04-05T05:39:33;97479.59;;;0.73;93.38
32747;BME280;19118;50.860;13.662;2023-04-05T05:44:33;97475.66;;;0.58;93.05
32747;BME280;19118;50.860;13.662;2023-04-05T05:49:34;97475.84;;;0.34;93.23
32747;BME280;19118;50.860;13.662;2023-04-05T05:54:35;97474.56;;;0.17;93.51
32747;BME280;19118;50.860;13.662;2023-04-05T05:59:35;97470.78;;;0.10;93.61
32747;BME280;19118;50.860;13.662;2023-04-05T06:04:36;97468.91;;;0.12;93.12
32747;BME280;19118;50.860;13.662;2023-04-05T06:09:37;97472.63;;;0.31;91.97
32747;BME280;19118;50.860;13.662;2023-04-05T06:14:37;97470.25;;;0.39;89.88
32747;BME280;19118;50.860;13.662;2023-04-05T06:19:38;97471.88;;;0.51;89.71
32747;BME280;19118;50.860;13.662;2023-04-05T06:24:38;97477.53;;;0.56;88.30
32747;BME280;19118;50.860;13.662;2023-04-05T06:29:39;97469.19;;;0.73;85.07
32747;BME280;19118;50.860;13.662;2023-04-05T06:34:39;97469.53;;;0.80;82.88
32747;BME280;19118;50.860;13.662;2023-04-05T06:39:40;97474.72;;;1.01;82.59
32747;BME280;19118;50.860;13.662;2023-04-05T06:44:40;97472.78;;;1.14;81.48
32747;BME280;19118;50.860;13.662;2023-04-05T06:49:40;97474.53;;;1.34;80.85
32747;BME280;19118;50.860;13.662;2023-04-05T06:54:41;97467.78;;;1.53;78.52
32747;BME280;19118;50.860;13.662;2023-04-05T06:59:41;97474.97;;;1.60;77.60
32747;BME280;19118;50.860;13.662;2023-04-05T07:04:41;97475.75;;;1.82;76.99
32747;BME280;19118;50.860;13.662;2023-04-05T07:09:42;97468.81;;;2.01;76.42
32747;BME280;19118;50.860;13.662;2023-04-05T07:14:43;97468.56;;;2.04;73.28
32747;BME280;19118;50.860;13.662;2023-04-05T07:19:43;97471.91;;;2.26;73.30
32747;BME280;19118;50.860;13.662;2023-04-05T07:24:44;97466.94;;;2.23;72.92
32747;BME280;19118;50.860;13.662;2023-04-05T07:29:45;97472.84;;;2.25;71.18
32747;BME280;19118;50.860;13.662;2023-04-05T07:34:47;97471.41;;;2.51;71.01
32747;BME280;19118;50.860;13.662;2023-04-05T07:39:49;97460.16;;;2.89;70.49
32747;BME280;19118;50.860;13.662;2023-04-05T07:44:51;97462.63;;;3.01;67.90
32747;BME280;19118;50.860;13.662;2023-04-05T07:49:51;97457.94;;;3.04;67.97
32747;BME280;19118;50.860;13.662;2023-04-05T07:54:52;97464.63;;;3.36;68.82
32747;BME280;19118;50.860;13.662;2023-04-05T07:59:53;97460.88;;;3.58;65.69
32747;BME280;19118;50.860;13.662;2023-04-05T08:04:54;97469.06;;;3.72;64.77
32747;BME280;19118;50.860;13.662;2023-04-05T08:09:55;97456.88;;;4.18;63.31
32747;BME280;19118;50.860;13.662;2023-04-05T08:14:57;97458.75;;;4.08;63.22
32747;BME280;19118;50.860;13.662;2023-04-05T08:19:57;97463.03;;;4.72;62.39
32747;BME280;19118;50.860;13.662;2023-04-05T08:24:58;97471.88;;;4.26;62.01
32747;BME280;19118;50.860;13.662;2023-04-05T08:29:58;97470.13;;;4.44;61.61
32747;BME280;19118;50.860;13.662;2023-04-05T08:34:58;97462.31;;;4.34;61.63
32747;BME280;19118;50.860;13.662;2023-04-05T08:39:59;97455.59;;;4.85;60.52
32747;BME280;19118;50.860;13.662;2023-04-05T08:45:02;97458.97;;;4.95;60.40
32747;BME280;19118;50.860;13.662;2023-04-05T08:50:03;97463.94;;;4.99;58.66
32747;BME280;19118;50.860;13.662;2023-04-05T08:55:05;97464.28;;;4.50;58.68
32747;BME280;19118;50.860;13.662;2023-04-05T09:00:07;97466.03;;;4.77;59.44
32747;BME280;19118;50.860;13.662;2023-04-05T09:05:08;97462.28;;;5.41;58.79
32747;BME280;19118;50.860;13.662;2023-04-05T09:10:12;97466.25;;;5.45;58.31
32747;BME280;19118;50.860;13.662;2023-04-05T09:15:13;97459.47;;;5.61;56.57
32747;BME280;19118;50.860;13.662;2023-04-05T09:20:14;97456.16;;;5.59;56.34
32747;BME280;19118;50.860;13.662;2023-04-05T09:25:33;97446.13;;;5.80;55.00
32747;BME280;19118;50.860;13.662;2023-04-05T09:30:35;97454.56;;;5.66;55.41
32747;BME280;19118;50.860;13.662;2023-04-05T09:35:37;97452.56;;;5.60;54.14
32747;BME280;19118;50.860;13.662;2023-04-05T09:40:45;97453.50;;;5.50;54.59
32747;BME280;19118;50.860;13.662;2023-04-05T09:45:52;97453.88;;;5.55;55.43
32747;BME280;19118;50.860;13.662;2023-04-05T09:51:03;97460.69;;;5.48;56.29
32747;BME280;19118;50.860;13.662;2023-04-05T09:56:09;97458.91;;;4.70;59.56
32747;BME280;19118;50.860;13.662;2023-04-05T10:01:13;97448.75;;;4.66;60.04
32747;BME280;19118;50.860;13.662;2023-04-05T10:06:16;97450.53;;;4.84;60.07
32747;BME280;19118;50.860;13.662;2023-04-05T10:11:17;97450.69;;;5.44;58.52
32747;BME280;19118;50.860;13.662;2023-04-05T10:16:20;97449.84;;;5.95;57.49
32747;BME280;19118;50.860;13.662;2023-04-05T10:21:27;97440.06;;;6.88;56.91
32747;BME280;19118;50.860;13.662;2023-04-05T10:26:39;97444.56;;;6.37;55.40
32747;BME280;19118;50.860;13.662;2023-04-05T10:31:54;97434.28;;;6.60;55.64
32747;BME280;19118;50.860;13.662;2023-04-05T10:37:01;97426.69;;;7.47;54.69
32747;BME280;19118;50.860;13.662;2023-04-05T10:47:12;97427.63;;;6.32;53.83
32747;BME280;19118;50.860;13.662;2023-04-05T10:52:13;97420.84;;;6.96;53.93
32747;BME280;19118;50.860;13.662;2023-04-05T10:57:18;97418.19;;;7.12;53.60
32747;BME280;19118;50.860;13.662;2023-04-05T11:02:19;97423.13;;;7.07;54.55
32747;BME280;19118;50.860;13.662;2023-04-05T11:07:20;97417.38;;;7.36;54.39
32747;BME280;19118;50.860;13.662;2023-04-05T11:18:11;97414.50;;;7.70;52.03
32747;BME280;19118;50.860;13.662;2023-04-05T11:23:16;97409.31;;;7.13;52.42
32747;BME280;19118;50.860;13.662;2023-04-05T11:28:27;97415.56;;;6.63;55.90
32747;BME280;19118;50.860;13.662;2023-04-05T11:38:43;97408.41;;;6.15;57.40
32747;BME280;19118;50.860;13.662;2023-04-05T11:43:44;97406.22;;;6.10;58.23
32747;BME280;19118;50.860;13.662;2023-04-05T11:48:49;97417.06;;;5.73;59.60
32747;BME280;19118;50.860;13.662;2023-04-05T11:53:50;97401.91;;;6.52;59.26
32747;BME280;19118;50.860;13.662;2023-04-05T11:58:50;97392.09;;;8.13;54.96
32747;BME280;19118;50.860;13.662;2023-04-05T12:03:55;97382.13;;;9.23;52.58
32747;BME280;19118;50.860;13.662;2023-04-05T12:08:55;97392.13;;;7.66;51.80
32747;BME280;19118;50.860;13.662;2023-04-05T12:13:57;97386.47;;;6.49;53.55
32747;BME280;19118;50.860;13.662;2023-04-05T12:18:59;97393.78;;;6.21;56.67
32747;BME280;19118;50.860;13.662;2023-04-05T12:23:59;97393.47;;;6.16;55.29
32747;BME280;19118;50.860;13.662;2023-04-05T12:29:02;97397.69;;;6.00;56.65
32747;BME280;19118;50.860;13.662;2023-04-05T12:34:03;97397.53;;;6.10;59.31
32747;BME280;19118;50.860;13.662;2023-04-05T12:39:07;97384.41;;;5.68;56.19
32747;BME280;19118;50.860;13.662;2023-04-05T12:44:14;97391.25;;;5.95;60.43
32747;BME280;19118;50.860;13.662;2023-04-05T12:49:16;97404.63;;;5.49;60.48
32747;BME280;19118;50.860;13.662;2023-04-05T12:54:21;97399.00;;;5.10;62.20
32747;BME280;19118;50.860;13.662;2023-04-05T12:59:22;97398.78;;;5.30;64.04
32747;BME280;19118;50.860;13.662;2023-04-05T13:04:25;97400.91;;;5.60;63.11
32747;BME280;19118;50.860;13.662;2023-04-05T13:09:25;97401.53;;;5.02;64.13
32747;BME280;19118;50.860;13.662;2023-04-05T13:14:25;97394.59;;;5.19;63.58
32747;BME280;19118;50.860;13.662;2023-04-05T13:19:25;97389.88;;;5.82;61.54
32747;BME280;19118;50.860;13.662;2023-04-05T13:24:26;97387.09;;;5.84;62.47
32747;BME280;19118;50.860;13.662;2023-04-05T13:29:26;97380.97;;;6.09;62.92
32747;BME280;19118;50.860;13.662;2023-04-05T13:34:26;97372.34;;;6.50;59.76
32747;BME280;19118;50.860;13.662;2023-04-05T13:39:27;97369.91;;;6.97;59.08
32747;BME280;19118;50.860;13.662;2023-04-05T13:44:27;97361.03;;;7.14;57.42
32747;BME280;19118;50.860;13.662;2023-04-05T13:49:27;97357.09;;;6.86;57.70
32747;BME280;19118;50.860;13.662;2023-04-05T13:54:28;97359.69;;;7.18;58.40
32747;BME280;19118;50.860;13.662;2023-04-05T13:59:28;97354.28;;;6.87;57.61
32747;BME280;19118;50.860;13.662;2023-04-05T14:04:28;97354.47;;;6.61;58.89
32747;BME280;19118;50.860;13.662;2023-04-05T14:09:29;97346.38;;;7.12;58.46
32747;BME280;19118;50.860;13.662;2023-04-05T14:14:30;97341.00;;;6.72;59.82
32747;BME280;19118;50.860;13.662;2023-04-05T14:19:30;97333.41;;;7.10;59.19
32747;BME280;19118;50.860;13.662;2023-04-05T14:24:30;97334.59;;;7.47;57.37
32747;BME280;19118;50.860;13.662;2023-04-05T14:29:31;97333.13;;;6.72;58.89
32747;BME280;19118;50.860;13.662;2023-04-05T14:34:31;97325.22;;;6.24;59.72
32747;BME280;19118;50.860;13.662;2023-04-05T14:39:32;97333.38;;;6.04;60.91
32747;BME280;19118;50.860;13.662;2023-04-05T14:44:33;97334.22;;;5.71;60.71
32747;BME280;19118;50.860;13.662;2023-04-05T14:49:33;97334.38;;;6.20;59.62
32747;BME280;19118;50.860;13.662;2023-04-05T14:54:33;97332.03;;;5.92;62.44
32747;BME280;19118;50.860;13.662;2023-04-05T14:59:34;97332.41;;;6.22;61.73
32747;BME280;19118;50.860;13.662;2023-04-05T15:04:34;97334.84;;;5.65;63.13
32747;BME280;19118;50.860;13.662;2023-04-05T15:09:35;97340.31;;;5.37;62.93
32747;BME280;19118;50.860;13.662;2023-04-05T15:14:35;97343.47;;;5.15;70.80
32747;BME280;19118;50.860;13.662;2023-04-05T15:19:36;97341.78;;;5.06;75.91
32747;BME280;19118;50.860;13.662;2023-04-05T15:24:38;97335.47;;;4.90;78.69
32747;BME280;19118;50.860;13.662;2023-04-05T15:29:39;97321.88;;;4.69;80.32
32747;BME280;19118;50.860;13.662;2023-04-05T15:34:39;97330.66;;;4.60;79.75
32747;BME280;19118;50.860;13.662;2023-04-05T15:39:40;97319.91;;;4.89;78.86
32747;BME280;19118;50.860;13.662;2023-04-05T15:44:40;97327.53;;;5.08;77.06
32747;BME280;19118;50.860;13.662;2023-04-05T15:49:43;97323.75;;;4.77;75.09
32747;BME280;19118;50.860;13.662;2023-04-05T15:54:43;97316.84;;;5.28;73.21
32747;BME280;19118;50.860;13.662;2023-04-05T15:59:43;97318.94;;;5.58;70.66
32747;BME280;19118;50.860;13.662;2023-04-05T16:04:44;97318.81;;;5.68;68.93
32747;BME280;19118;50.860;13.662;2023-04-05T16:09:44;97325.28;;;5.13;64.77
32747;BME280;19118;50.860;13.662;2023-04-05T16:14:45;97317.69;;;5.02;65.00
32747;BME280;19118;50.860;13.662;2023-04-05T16:19:45;97313.34;;;4.67;65.22
32747;BME280;19118;50.860;13.662;2023-04-05T16:24:45;97313.63;;;4.64;68.22
32747;BME280;19118;50.860;13.662;2023-04-05T16:29:46;97305.97;;;4.45;68.80
32747;BME280;19118;50.860;13.662;2023-04-05T16:34:46;97308.06;;;4.41;67.92
32747;BME280;19118;50.860;13.662;2023-04-05T16:39:46;97308.09;;;4.23;69.17
32747;BME280;19118;50.860;13.662;2023-04-05T16:44:47;97307.47;;;3.94;70.33
32747;BME280;19118;50.860;13.662;2023-04-05T16:49:47;97309.16;;;3.67;71.55
32747;BME280;19118;50.860;13.662;2023-04-05T16:54:48;97307.81;;;3.36;71.66
32747;BME280;19118;50.860;13.662;2023-04-05T16:59:48;97310.38;;;3.18;73.69
32747;BME280;19118;50.860;13.662;2023-04-05T17:04:48;97301.69;;;2.80;77.25
32747;BME280;19118;50.860;13.662;2023-04-05T17:09:48;97309.16;;;2.46;83.53
32747;BME280;19118;50.860;13.662;2023-04-05T17:14:49;97305.06;;;2.15;88.72
32747;BME280;19118;50.860;13.662;2023-04-05T17:19:49;97308.78;;;1.93;95.16
32747;BME280;19118;50.860;13.662;2023-04-05T17:24:50;97304.59;;;1.61;100.00
32747;BME280;19118;50.860;13.662;2023-04-05T17:29:50;97312.06;;;1.26;100.00
32747;BME280;19118;50.860;13.662;2023-04-05T17:34:50;97310.69;;;0.91;100.00
32747;BME280;19118;50.860;13.662;2023-04-05T17:39:51;97305.56;;;0.59;100.00
32747;BME280;19118;50.860;13.662;2023-04-05T17:44:51;97303.97;;;0.26;100.00
32747;BME280;19118;50.860;13.662;2023-04-05T17:49:51;97307.63;;;0.03;100.00
32747;BME280;19118;50.860;13.662;2023-04-05T17:54:52;97312.28;;;-0.23;100.00
32747;BME280;19118;50.860;13.662;2023-04-05T17:59:53;97306.91;;;-0.32;100.00
32747;BME280;19118;50.860;13.662;2023-04-05T18:04:53;97312.56;;;-0.38;100.00
32747;BME280;19118;50.860;13.662;2023-04-05T18:09:54;97319.44;;;-0.48;100.00
32747;BME280;19118;50.860;13.662;2023-04-05T18:14:54;97317.34;;;-0.54;100.00
32747;BME280;19118;50.860;13.662;2023-04-05T18:19:54;97330.31;;;-0.54;100.00
32747;BME280;19118;50.860;13.662;2023-04-05T18:24:55;97326.28;;;-0.47;100.00
32747;BME280;19118;50.860;13.662;2023-04-05T18:29:55;97328.88;;;-0.36;100.00
32747;BME280;19118;50.860;13.662;2023-04-05T18:34:56;97332.50;;;-0.27;100.00
32747;BME280;19118;50.860;13.662;2023-04-05T18:39:56;97340.66;;;-0.20;100.00
32747;BME280;19118;50.860;13.662;2023-04-05T18:44:57;97340.63;;;-0.09;100.00
32747;BME280;19118;50.860;13.662;2023-04-05T18:49:58;97348.25;;;0.04;100.00
32747;BME280;19118;50.860;13.662;2023-04-05T18:54:59;97347.53;;;0.13;100.00
32747;BME280;19118;50.860;13.662;2023-04-05T19:00:00;97353.50;;;0.24;100.00
32747;BME280;19118;50.860;13.662;2023-04-05T19:05:01;97347.31;;;0.37;100.00
32747;BME280;19118;50.860;13.662;2023-04-05T19:10:01;97354.16;;;0.38;100.00
32747;BME280;19118;50.860;13.662;2023-04-05T19:15:02;97355.28;;;0.45;100.00
32747;BME280;19118;50.860;13.662;2023-04-05T19:20:02;97353.41;;;0.47;100.00
32747;BME280;19118;50.860;13.662;2023-04-05T19:25:03;97353.03;;;0.51;100.00
32747;BME280;19118;50.860;13.662;2023-04-05T19:30:04;97354.41;;;0.55;100.00
32747;BME280;19118;50.860;13.662;2023-04-05T19:35:06;97358.97;;;0.63;100.00
32747;BME280;19118;50.860;13.662;2023-04-05T19:40:08;97355.69;;;0.61;100.00
32747;BME280;19118;50.860;13.662;2023-04-05T19:45:10;97354.25;;;0.68;100.00
32747;BME280;19118;50.860;13.662;2023-04-05T19:55:32;97354.41;;;0.76;100.00
32747;BME280;19118;50.860;13.662;2023-04-05T20:00:44;97347.06;;;0.81;100.00
32747;BME280;19118;50.860;13.662;2023-04-05T20:06:11;97343.78;;;0.89;100.00
32747;BME280;19118;50.860;13.662;2023-04-05T20:11:12;97342.97;;;0.88;100.00
32747;BME280;19118;50.860;13.662;2023-04-05T20:16:14;97340.63;;;0.85;100.00
32747;BME280;19118;50.860;13.662;2023-04-05T20:21:15;97336.19;;;0.76;100.00
32747;BME280;19118;50.860;13.662;2023-04-05T20:26:16;97324.97;;;0.76;100.00
32747;BME280;19118;50.860;13.662;2023-04-05T20:31:19;97322.75;;;0.71;100.00
32747;BME280;19118;50.860;13.662;2023-04-05T20:36:28;97327.00;;;0.72;100.00
32747;BME280;19118;50.860;13.662;2023-04-05T20:41:30;97327.34;;;0.58;100.00
32747;BME280;19118;50.860;13.662;2023-04-05T20:46:33;97316.47;;;0.53;100.00
32747;BME280;19118;50.860;13.662;2023-04-05T20:51:34;97318.38;;;0.51;100.00
32747;BME280;19118;50.860;13.662;2023-04-05T20:56:34;97320.59;;;0.55;100.00
32747;BME280;19118;50.860;13.662;2023-04-05T21:01:34;97320.78;;;0.43;100.00
32747;BME280;19118;50.860;13.662;2023-04-05T21:06:36;97319.56;;;0.26;100.00
32747;BME280;19118;50.860;13.662;2023-04-05T21:11:38;97322.78;;;0.18;100.00
32747;BME280;19118;50.860;13.662;2023-04-05T21:16:39;97317.38;;;0.10;100.00
32747;BME280;19118;50.860;13.662;2023-04-05T21:21:39;97314.75;;;-0.11;100.00
32747;BME280;19118;50.860;13.662;2023-04-05T21:26:39;97306.50;;;-0.16;100.00
32747;BME280;19118;50.860;13.662;2023-04-05T21:31:40;97300.50;;;-0.27;100.00
32747;BME280;19118;50.860;13.662;2023-04-05T21:36:40;97301.88;;;-0.44;100.00
32747;BME280;19118;50.860;13.662;2023-04-05T21:41:41;97296.56;;;-0.54;100.00
32747;BME280;19118;50.860;13.662;2023-04-05T21:46:41;97296.81;;;-0.68;100.00
32747;BME280;19118;50.860;13.662;2023-04-05T21:51:41;97290.59;;;-0.88;100.00
32747;BME280;19118;50.860;13.662;2023-04-05T21:56:41;97294.03;;;-1.10;100.00
32747;BME280;19118;50.860;13.662;2023-04-05T22:01:42;97293.41;;;-1.25;100.00
32747;BME280;19118;50.860;13.662;2023-04-05T22:06:42;97292.94;;;-1.41;100.00
32747;BME280;19118;50.860;13.662;2023-04-05T22:11:43;97288.66;;;-1.64;100.00
32747;BME280;19118;50.860;13.662;2023-04-05T22:16:43;97289.19;;;-1.83;100.00
32747;BME280;19118;50.860;13.662;2023-04-05T22:21:43;97284.53;;;-2.02;100.00
32747;BME280;19118;50.860;13.662;2023-04-05T22:26:44;97283.88;;;-2.17;100.00
32747;BME280;19118;50.860;13.662;2023-04-05T22:31:45;97285.41;;;-2.25;100.00
32747;BME280;19118;50.860;13.662;2023-04-05T22:36:45;97277.56;;;-2.37;100.00
32747;BME280;19118;50.860;13.662;2023-04-05T22:41:46;97275.94;;;-2.50;100.00
32747;BME280;19118;50.860;13.662;2023-04-05T22:46:46;97280.16;;;-2.60;100.00
32747;BME280;19118;50.860;13.662;2023-04-05T22:51:46;97281.44;;;-2.79;100.00
32747;BME280;19118;50.860;13.662;2023-04-05T22:56:47;97283.72;;;-2.87;100.00
32747;BME280;19118;50.860;13.662;2023-04-05T23:01:47;97281.38;;;-2.90;100.00
32747;BME280;19118;50.860;13.662;2023-04-05T23:19:29;97271.28;;;-3.18;100.00
32747;BME280;19118;50.860;13.662;2023-04-05T23:24:30;97270.16;;;-3.27;100.00
32747;BME280;19118;50.860;13.662;2023-04-05T23:29:30;97277.00;;;-3.26;100.00
32747;BME280;19118;50.860;13.662;2023-04-05T23:34:30;97272.66;;;-3.26;100.00
32747;BME280;19118;50.860;13.662;2023-04-05T23:39:31;97277.81;;;-3.26;100.00
32747;BME280;19118;50.860;13.662;2023-04-05T23:44:31;97280.50;;;-3.27;100.00
32747;BME280;19118;50.860;13.662;2023-04-05T23:49:32;97275.75;;;-3.33;100.00
32747;BME280;19118;50.860;13.662;2023-04-05T23:54:32;97266.94;;;-3.31;100.00
32747;BME280;19118;50.860;13.662;2023-04-05T23:59:33;97259.41;;;-3.34;100.00
